createdAt,value
2019-03-09T00:01:21.407Z,64.27
2019-03-09T00:03:51.139Z,63.87
2019-03-09T00:06:21.263Z,63.96
2019-03-09T00:08:51.624Z,64.08
2019-03-09T00:11:21.391Z,63.76
2019-03-09T00:13:50.724Z,64.14
2019-03-09T00:16:20.376Z,63.83
2019-03-09T00:18:50.319Z,64.21
2019-03-09T00:21:19.965Z,64.04
2019-03-09T00:23:49.487Z,64.35
2019-03-09T00:26:30.007Z,64.16
2019-03-09T00:29:10.015Z,63.64
2019-03-09T00:31:41.951Z,63.70
2019-03-09T00:34:11.608Z,63.42
2019-03-09T00:36:40.935Z,63.35
2019-03-09T00:39:11.368Z,62.84
2019-03-09T00:41:40.679Z,62.72
2019-03-09T00:44:09.989Z,62.57
2019-03-09T00:46:39.295Z,62.73
2019-03-09T00:49:11.119Z,62.56
2019-03-09T00:51:40.330Z,62.32
2019-03-09T00:54:09.934Z,62.16
2019-03-09T00:56:39.989Z,62.10
2019-03-09T00:59:09.977Z,61.91
2019-03-09T01:01:40.251Z,61.70
2019-03-09T01:04:10.066Z,61.32
2019-03-09T01:06:40.972Z,61.28
2019-03-09T01:09:10.632Z,60.60
2019-03-09T01:11:40.647Z,60.81
2019-03-09T01:14:09.979Z,60.43
2019-03-09T01:16:39.321Z,60.63
2019-03-09T01:19:09.100Z,60.38
2019-03-09T01:21:40.314Z,60.04
2019-03-09T01:24:10.328Z,60.20
2019-03-09T01:26:39.938Z,60.40
2019-03-09T01:29:09.642Z,60.27
2019-03-09T01:31:40.701Z,60.27
2019-03-09T01:34:10.703Z,60.18
2019-03-09T01:36:40.410Z,60.11
2019-03-09T01:39:11.529Z,60.09
2019-03-09T01:41:40.897Z,60.47
2019-03-09T01:44:10.570Z,60.48
2019-03-09T01:46:40.291Z,60.55
2019-03-09T01:49:09.869Z,60.58
2019-03-09T01:51:39.209Z,60.29
2019-03-09T01:54:08.791Z,60.03
2019-03-09T01:56:38.116Z,59.40
2019-03-09T01:59:07.941Z,59.86
2019-03-09T02:01:37.528Z,59.68
2019-03-09T02:04:06.859Z,59.35
2019-03-09T02:06:36.545Z,59.68
2019-03-09T02:09:07.260Z,59.30
2019-03-09T02:11:38.940Z,59.18
2019-03-09T02:14:08.989Z,58.73
2019-03-09T02:16:38.342Z,58.74
2019-03-09T02:19:09.684Z,58.50
2019-03-09T02:21:39.277Z,58.11
2019-03-09T02:24:10.266Z,58.15
2019-03-09T02:26:39.562Z,58.40
2019-03-09T02:29:08.953Z,58.01
2019-03-09T02:31:38.252Z,58.02
2019-03-09T02:34:08.883Z,58.23
2019-03-09T02:36:38.446Z,58.08
2019-03-09T02:39:21.647Z,58.07
2019-03-09T02:41:50.951Z,58.31
2019-03-09T02:44:20.661Z,58.53
2019-03-09T02:46:50.301Z,58.58
2019-03-09T02:49:19.812Z,58.42
2019-03-09T02:51:49.227Z,58.94
2019-03-09T02:54:18.530Z,58.60
2019-03-09T02:56:48.121Z,58.84
2019-03-09T02:59:17.738Z,58.71
2019-03-09T03:01:48.714Z,58.75
2019-03-09T03:04:18.399Z,58.74
2019-03-09T03:06:47.700Z,59.03
2019-03-09T03:09:17.035Z,58.97
2019-03-09T03:11:46.338Z,59.05
2019-03-09T03:14:15.790Z,59.12
2019-03-09T03:16:45.211Z,59.00
2019-03-09T03:19:14.630Z,59.33
2019-03-09T03:21:45.447Z,59.11
2019-03-09T03:24:15.163Z,59.46
2019-03-09T03:26:44.482Z,59.35
2019-03-09T03:29:14.191Z,59.17
2019-03-09T03:31:44.017Z,59.48
2019-03-09T03:34:13.686Z,59.63
2019-03-09T03:36:43.143Z,59.61
2019-03-09T03:39:12.812Z,59.26
2019-03-09T03:41:42.807Z,59.57
2019-03-09T03:44:12.681Z,59.91
2019-03-09T03:46:42.056Z,60.04
2019-03-09T03:49:12.740Z,59.79
2019-03-09T03:51:42.462Z,59.74
2019-03-09T03:54:12.028Z,59.56
2019-03-09T03:56:41.779Z,59.54
2019-03-09T03:59:11.204Z,59.36
2019-03-09T04:01:40.776Z,58.99
2019-03-09T04:04:10.406Z,58.91
2019-03-09T04:06:40.416Z,58.73
2019-03-09T04:09:09.726Z,58.65
2019-03-09T04:11:39.355Z,58.59
2019-03-09T04:14:08.663Z,57.77
2019-03-09T04:16:38.174Z,58.08
2019-03-09T04:19:08.153Z,57.76
2019-03-09T04:21:37.852Z,57.78
2019-03-09T04:24:07.174Z,57.79
2019-03-09T04:26:36.785Z,57.83
2019-03-09T04:29:06.107Z,57.65
2019-03-09T04:31:36.459Z,57.07
2019-03-09T04:34:06.006Z,57.25
2019-03-09T04:36:35.546Z,56.82
2019-03-09T04:39:05.705Z,56.65
2019-03-09T04:41:35.008Z,56.45
2019-03-09T04:44:04.658Z,56.58
2019-03-09T04:46:34.069Z,56.71
2019-03-09T04:49:03.357Z,56.84
2019-03-09T04:51:32.687Z,56.51
2019-03-09T04:54:02.019Z,56.58
2019-03-09T04:56:31.482Z,56.22
2019-03-09T04:59:01.746Z,56.12
2019-03-09T05:01:31.336Z,56.11
2019-03-09T05:04:28.004Z,56.12
2019-03-09T05:06:57.881Z,55.96
2019-03-09T05:09:48.387Z,55.88
2019-03-09T05:12:17.844Z,55.53
2019-03-09T05:14:47.155Z,55.41
2019-03-09T05:17:16.578Z,55.25
2019-03-09T05:19:45.931Z,55.54
2019-03-09T05:22:15.867Z,55.59
2019-03-09T05:24:46.376Z,55.65
2019-03-09T05:27:17.003Z,55.28
2019-03-09T05:29:46.509Z,55.39
2019-03-09T05:32:15.844Z,55.12
2019-03-09T05:34:45.365Z,55.27
2019-03-09T05:37:15.031Z,54.88
2019-03-09T05:39:44.341Z,54.74
2019-03-09T05:42:14.399Z,54.52
2019-03-09T05:44:44.416Z,54.53
2019-03-09T05:47:14.022Z,54.44
2019-03-09T05:49:43.660Z,54.67
2019-03-09T05:52:26.954Z,54.35
2019-03-09T05:54:58.659Z,54.44
2019-03-09T05:57:28.042Z,54.32
2019-03-09T05:59:58.522Z,54.38
2019-03-09T06:02:27.867Z,54.27
2019-03-09T06:04:57.201Z,54.25
2019-03-09T06:07:27.142Z,54.84
2019-03-09T06:09:57.710Z,55.59
2019-03-09T06:12:27.020Z,55.78
2019-03-09T06:14:57.236Z,56.83
2019-03-09T06:17:26.552Z,57.79
2019-03-09T06:19:56.174Z,59.12
2019-03-09T06:22:27.715Z,59.70
2019-03-09T06:24:57.071Z,60.86
2019-03-09T06:27:26.726Z,61.03
2019-03-09T06:29:56.055Z,60.58
2019-03-09T06:32:36.634Z,61.96
2019-03-09T06:35:22.480Z,62.74
2019-03-09T06:37:59.596Z,62.24
2019-03-09T06:40:29.281Z,63.51
2019-03-09T06:42:59.201Z,63.58
2019-03-09T06:45:29.320Z,64.81
2019-03-09T06:47:58.884Z,65.42
2019-03-09T06:50:28.445Z,65.10
2019-03-09T06:52:57.847Z,65.65
2019-03-09T06:55:27.137Z,65.62
2019-03-09T06:57:56.878Z,65.42
2019-03-09T07:00:37.393Z,65.21
2019-03-09T07:03:06.886Z,65.51
2019-03-09T07:05:36.523Z,65.25
2019-03-09T07:08:05.899Z,65.84
2019-03-09T07:10:36.082Z,66.42
2019-03-09T07:13:05.871Z,65.84
2019-03-09T07:15:38.862Z,66.74
2019-03-09T07:18:17.245Z,67.84
2019-03-09T07:20:46.959Z,67.70
2019-03-09T07:23:16.372Z,68.41
2019-03-09T07:25:45.696Z,70.16
2019-03-09T07:28:16.020Z,69.14
2019-03-09T07:30:46.189Z,69.03
2019-03-09T07:33:15.523Z,70.44
2019-03-09T07:35:45.221Z,70.09
2019-03-09T07:38:15.699Z,70.44
2019-03-09T07:40:45.356Z,71.72
2019-03-09T07:43:14.696Z,71.54
2019-03-09T07:45:44.375Z,72.19
2019-03-09T07:48:13.686Z,73.01
2019-03-09T07:50:43.570Z,73.99
2019-03-09T07:53:14.204Z,73.56
2019-03-09T07:55:44.212Z,73.49
2019-03-09T07:58:13.828Z,71.76
2019-03-09T08:00:44.014Z,72.88
2019-03-09T08:05:51.355Z,72.07
2019-03-09T08:08:21.022Z,70.86
2019-03-09T08:10:50.978Z,70.67
2019-03-09T08:13:20.283Z,70.14
2019-03-09T08:15:50.189Z,68.84
2019-03-09T08:18:20.771Z,69.04
2019-03-09T08:20:50.071Z,68.44
2019-03-09T08:23:19.669Z,66.73
2019-03-09T08:25:48.970Z,67.63
2019-03-09T08:28:18.586Z,66.08
2019-03-09T08:30:47.911Z,65.70
2019-03-09T08:33:17.248Z,64.97
2019-03-09T08:35:46.539Z,63.99
2019-03-09T08:38:16.165Z,64.40
2019-03-09T08:40:45.511Z,63.75
2019-03-09T08:43:15.285Z,62.22
2019-03-09T08:45:44.676Z,61.65
2019-03-09T08:48:14.299Z,61.33
2019-03-09T08:50:44.441Z,60.50
2019-03-09T08:53:14.074Z,60.92
2019-03-09T08:55:43.393Z,59.83
2019-03-09T08:58:13.247Z,59.92
2019-03-09T09:00:42.979Z,59.38
2019-03-09T09:03:12.273Z,59.00
2019-03-09T09:05:41.954Z,58.42
2019-03-09T09:08:11.295Z,58.70
2019-03-09T09:10:40.958Z,58.73
2019-03-09T09:13:10.695Z,58.51
2019-03-09T09:15:40.184Z,58.25
2019-03-09T09:18:09.789Z,59.02
2019-03-09T09:20:39.169Z,58.44
2019-03-09T09:23:17.643Z,58.13
2019-03-09T09:25:47.217Z,57.45
2019-03-09T09:28:16.559Z,57.99
2019-03-09T09:30:47.468Z,57.75
2019-03-09T09:33:17.048Z,56.70
2019-03-09T09:35:46.431Z,56.65
2019-03-09T09:38:15.799Z,55.54
2019-03-09T09:40:45.570Z,54.61
2019-03-09T09:43:14.895Z,54.66
2019-03-09T09:45:45.654Z,54.42
2019-03-09T09:48:15.557Z,53.99
2019-03-09T09:50:46.577Z,52.75
2019-03-09T09:53:15.906Z,52.88
2019-03-09T09:55:45.698Z,50.96
2019-03-09T09:58:16.073Z,51.53
2019-03-09T10:00:45.614Z,48.30
2019-03-09T10:03:15.094Z,48.52
2019-03-09T10:05:45.948Z,49.72
2019-03-09T10:08:15.234Z,49.34
2019-03-09T10:10:44.867Z,48.78
2019-03-09T10:13:14.467Z,49.73
2019-03-09T10:15:44.072Z,47.35
2019-03-09T10:18:13.785Z,47.24
2019-03-09T10:20:45.022Z,46.05
2019-03-09T10:23:16.460Z,47.63
2019-03-09T10:25:46.155Z,46.25
2019-03-09T10:28:16.005Z,46.57
2019-03-09T10:30:45.701Z,45.85
2019-03-09T10:33:17.186Z,46.67
2019-03-09T10:35:46.769Z,47.31
2019-03-09T10:38:16.093Z,47.78
2019-03-09T10:40:45.399Z,48.22
2019-03-09T10:43:14.780Z,48.45
2019-03-09T10:45:44.365Z,47.94
2019-03-09T10:48:13.709Z,48.34
2019-03-09T10:50:43.011Z,48.17
2019-03-09T10:53:13.194Z,49.25
2019-03-09T10:55:42.920Z,48.81
2019-03-09T10:58:12.505Z,48.59
2019-03-09T11:00:45.052Z,48.00
2019-03-09T11:03:14.355Z,48.00
2019-03-09T11:05:43.747Z,48.09
2019-03-09T11:08:13.411Z,48.15
2019-03-09T11:10:43.051Z,47.62
2019-03-09T11:13:12.610Z,49.55
2019-03-09T11:15:42.254Z,50.10
2019-03-09T11:18:11.831Z,49.70
2019-03-09T11:20:41.431Z,49.48
2019-03-09T11:23:11.079Z,50.17
2019-03-09T11:25:40.438Z,51.10
2019-03-09T11:28:13.060Z,51.27
2019-03-09T11:30:42.372Z,50.52
2019-03-09T11:33:11.952Z,49.88
2019-03-09T11:35:41.572Z,49.74
2019-03-09T11:38:11.225Z,49.47
2019-03-09T11:40:40.538Z,48.14
2019-03-09T11:43:10.184Z,49.06
2019-03-09T11:45:39.990Z,48.60
2019-03-09T11:48:09.320Z,48.29
2019-03-09T11:50:38.917Z,47.99
2019-03-09T11:53:08.538Z,48.42
2019-03-09T11:55:38.098Z,48.51
2019-03-09T11:58:07.747Z,47.75
2019-03-09T12:00:41.408Z,48.26
2019-03-09T12:03:10.769Z,48.97
2019-03-09T12:05:40.376Z,48.36
2019-03-09T12:08:09.970Z,48.80
2019-03-09T12:10:39.534Z,48.65
2019-03-09T12:13:08.887Z,47.77
2019-03-09T12:15:38.220Z,46.49
2019-03-09T12:18:07.787Z,46.60
2019-03-09T12:20:37.146Z,46.92
2019-03-09T12:23:21.313Z,47.49
2019-03-09T12:25:51.038Z,47.76
2019-03-09T12:28:20.613Z,48.92
2019-03-09T12:30:50.207Z,48.99
2019-03-09T12:33:19.518Z,49.38
2019-03-09T12:35:48.847Z,49.33
2019-03-09T12:38:18.180Z,49.77
2019-03-09T12:40:47.485Z,52.41
2019-03-09T12:43:17.128Z,55.65
2019-03-09T12:45:46.840Z,55.82
2019-03-09T12:48:16.249Z,61.22
2019-03-09T12:50:45.840Z,62.62
2019-03-09T12:53:15.199Z,62.80
2019-03-09T12:55:44.859Z,64.01
2019-03-09T12:58:14.168Z,64.26
2019-03-09T13:00:43.545Z,64.19
2019-03-09T13:03:13.124Z,63.76
2019-03-09T13:05:42.736Z,62.97
2019-03-09T13:08:12.379Z,64.07
2019-03-09T13:10:41.702Z,65.71
2019-03-09T13:13:11.401Z,65.69
2019-03-09T13:15:40.998Z,66.46
2019-03-09T13:18:10.718Z,64.88
2019-03-09T13:20:40.288Z,63.56
2019-03-09T13:23:12.704Z,64.49
2019-03-09T13:25:42.090Z,63.57
2019-03-09T13:28:11.670Z,63.46
2019-03-09T13:30:41.062Z,61.86
2019-03-09T13:33:10.457Z,60.19
2019-03-09T13:35:40.063Z,61.56
2019-03-09T13:38:09.367Z,61.83
2019-03-09T13:40:42.011Z,63.03
2019-03-09T13:43:11.328Z,64.04
2019-03-09T13:45:42.403Z,64.21
2019-03-09T13:48:11.779Z,63.87
2019-03-09T13:50:41.131Z,64.21
2019-03-09T13:53:12.086Z,62.80
2019-03-09T13:55:41.409Z,62.36
2019-03-09T13:58:13.314Z,61.46
2019-03-09T14:00:42.899Z,60.60
2019-03-09T14:03:12.691Z,60.17
2019-03-09T14:05:42.307Z,61.51
2019-03-09T14:08:11.914Z,60.79
2019-03-09T14:10:41.549Z,59.99
2019-03-09T14:13:10.866Z,58.80
2019-03-09T14:15:40.690Z,58.08
2019-03-09T14:18:10.142Z,58.84
2019-03-09T14:20:39.740Z,56.86
2019-03-09T14:23:09.091Z,56.11
2019-03-09T14:25:38.420Z,55.28
2019-03-09T14:28:08.035Z,57.27
2019-03-09T14:30:37.371Z,57.65
2019-03-09T14:33:06.693Z,60.18
2019-03-09T14:35:36.309Z,61.25
2019-03-09T14:38:05.920Z,61.69
2019-03-09T14:40:35.739Z,62.20
2019-03-09T14:43:05.311Z,61.47
2019-03-09T14:45:34.915Z,62.49
2019-03-09T14:48:04.568Z,62.28
2019-03-09T14:50:34.152Z,61.20
2019-03-09T14:53:06.289Z,60.28
2019-03-09T14:55:35.889Z,61.00
2019-03-09T14:58:05.601Z,61.08
2019-03-09T15:00:34.934Z,60.60
2019-03-09T15:03:04.559Z,61.28
2019-03-09T15:05:34.167Z,61.60
2019-03-09T15:08:03.486Z,61.33
2019-03-09T15:10:32.863Z,61.55
2019-03-09T15:13:02.158Z,59.14
2019-03-09T15:15:31.519Z,58.97
2019-03-09T15:18:01.090Z,57.47
2019-03-09T15:20:30.706Z,58.31
2019-03-09T15:23:00.293Z,56.54
2019-03-09T15:25:31.570Z,56.49
2019-03-09T15:28:01.345Z,55.87
2019-03-09T15:30:30.674Z,57.10
2019-03-09T15:33:00.273Z,55.60
2019-03-09T15:35:29.887Z,56.45
2019-03-09T15:37:59.488Z,54.74
2019-03-09T15:40:29.053Z,54.73
2019-03-09T15:42:58.642Z,53.88
2019-03-09T15:45:28.041Z,53.81
2019-03-09T15:47:57.639Z,53.79
2019-03-09T15:50:27.220Z,53.53
2019-03-09T15:52:56.841Z,53.69
2019-03-09T15:55:26.466Z,53.23
2019-03-09T15:57:55.789Z,53.04
2019-03-09T16:00:25.721Z,53.12
2019-03-09T16:02:55.315Z,52.51
2019-03-09T16:05:24.751Z,52.56
2019-03-09T16:07:56.350Z,52.05
2019-03-09T16:10:25.753Z,52.63
2019-03-09T16:12:55.566Z,51.23
2019-03-09T16:15:25.149Z,51.76
2019-03-09T16:17:54.472Z,51.71
2019-03-09T16:20:30.702Z,51.23
2019-03-09T16:23:00.345Z,51.79
2019-03-09T16:25:29.987Z,51.66
2019-03-09T16:27:59.453Z,52.04
2019-03-09T16:30:29.057Z,51.72
2019-03-09T16:32:58.691Z,52.15
2019-03-09T16:35:28.278Z,52.50
2019-03-09T16:37:57.897Z,52.77
2019-03-09T16:40:27.209Z,52.94
2019-03-09T16:42:56.604Z,52.93
2019-03-09T16:45:26.270Z,53.09
2019-03-09T16:47:55.895Z,53.11
2019-03-09T16:50:25.293Z,53.12
2019-03-09T16:52:54.647Z,53.41
2019-03-09T16:55:24.110Z,53.32
2019-03-09T16:57:53.420Z,53.34
2019-03-09T17:00:23.785Z,53.55
2019-03-09T17:02:53.120Z,53.28
2019-03-09T17:05:22.465Z,52.86
2019-03-09T17:07:52.137Z,52.98
2019-03-09T17:10:21.476Z,52.83
2019-03-09T17:12:50.806Z,52.57
2019-03-09T17:15:26.938Z,53.10
2019-03-09T17:17:56.640Z,52.76
2019-03-09T17:20:26.323Z,52.52
2019-03-09T17:22:56.027Z,52.88
2019-03-09T17:25:25.424Z,52.44
2019-03-09T17:27:55.155Z,52.54
2019-03-09T17:30:24.845Z,52.09
2019-03-09T17:32:54.243Z,52.10
2019-03-09T17:35:26.970Z,52.39
2019-03-09T17:37:56.538Z,51.81
2019-03-09T17:40:26.248Z,51.90
2019-03-09T17:42:55.560Z,51.94
2019-03-09T17:45:28.710Z,51.54
2019-03-09T17:47:58.525Z,51.44
2019-03-09T17:50:27.841Z,51.54
2019-03-09T17:52:57.185Z,51.48
2019-03-09T17:55:26.502Z,51.36
2019-03-09T17:57:55.867Z,52.11
2019-03-09T18:00:41.851Z,52.87
2019-03-09T18:03:03.186Z,53.79
2019-03-09T18:05:32.879Z,53.84
2019-03-09T18:08:02.254Z,53.83
2019-03-09T18:10:46.176Z,54.04
2019-03-09T18:13:15.502Z,54.27
2019-03-09T18:15:45.131Z,54.92
2019-03-09T18:18:14.453Z,55.47
2019-03-09T18:20:44.167Z,55.94
2019-03-09T18:23:13.763Z,55.87
2019-03-09T18:25:43.358Z,56.25
2019-03-09T18:28:12.996Z,56.80
2019-03-09T18:30:42.334Z,56.87
2019-03-09T18:33:11.648Z,57.82
2019-03-09T18:35:41.880Z,58.43
2019-03-09T18:38:11.576Z,59.50
2019-03-09T18:40:40.928Z,60.39
2019-03-09T18:43:10.336Z,61.41
2019-03-09T18:45:39.725Z,62.09
2019-03-09T18:48:09.052Z,62.59
2019-03-09T18:50:38.377Z,63.11
2019-03-09T18:53:08.193Z,64.09
2019-03-09T18:55:37.958Z,63.02
2019-03-09T18:58:07.388Z,62.87
2019-03-09T19:00:37.078Z,63.56
2019-03-09T19:03:06.524Z,64.15
2019-03-09T19:05:36.183Z,66.45
2019-03-09T19:08:05.541Z,69.29
2019-03-09T19:10:35.165Z,72.46
2019-03-09T19:13:04.781Z,74.23
2019-03-09T19:15:34.480Z,76.39
2019-03-09T19:18:04.197Z,76.57
2019-03-09T19:20:33.858Z,76.90
2019-03-09T19:23:03.577Z,76.61
2019-03-09T19:25:33.436Z,77.01
2019-03-09T19:28:02.823Z,76.81
2019-03-09T19:30:32.814Z,77.56
2019-03-09T19:33:02.376Z,77.23
2019-03-09T19:35:32.626Z,77.34
2019-03-09T19:38:02.000Z,77.44
2019-03-09T19:40:31.323Z,76.96
2019-03-09T19:43:00.619Z,76.33
2019-03-09T19:45:30.184Z,75.64
2019-03-09T19:47:59.774Z,72.20
2019-03-09T19:50:29.387Z,69.94
2019-03-09T19:52:59.288Z,70.43
2019-03-09T19:55:28.755Z,70.21
2019-03-09T19:57:58.346Z,68.54
2019-03-09T20:00:27.717Z,68.50
2019-03-09T20:02:57.391Z,68.22
2019-03-09T20:05:27.104Z,67.96
2019-03-09T20:07:56.680Z,66.36
2019-03-09T20:10:26.132Z,64.94
2019-03-09T20:12:55.482Z,63.91
2019-03-09T20:15:25.144Z,64.12
2019-03-09T20:17:54.965Z,63.84
2019-03-09T20:20:24.303Z,63.80
2019-03-09T20:22:53.611Z,63.46
2019-03-09T20:25:28.628Z,63.89
2019-03-09T20:27:58.056Z,63.41
2019-03-09T20:30:27.693Z,62.77
2019-03-09T20:32:57.028Z,61.93
2019-03-09T20:35:26.551Z,60.29
2019-03-09T20:37:56.611Z,57.59
2019-03-09T20:40:26.195Z,57.12
2019-03-09T20:42:55.867Z,56.50
2019-03-09T20:45:25.569Z,57.04
2019-03-09T20:47:55.282Z,57.77
2019-03-09T20:50:25.180Z,58.36
2019-03-09T20:52:54.793Z,58.21
2019-03-09T20:55:24.383Z,57.32
2019-03-09T20:57:54.021Z,58.01
2019-03-09T21:00:24.152Z,57.61
2019-03-09T21:02:53.778Z,57.84
2019-03-09T21:05:23.505Z,58.07
2019-03-09T21:07:52.910Z,58.07
2019-03-09T21:10:22.424Z,57.16
2019-03-09T21:13:03.896Z,57.50
2019-03-09T21:15:33.220Z,57.12
2019-03-09T21:18:02.598Z,57.44
2019-03-09T21:20:31.955Z,57.41
2019-03-09T21:23:01.583Z,56.96
2019-03-09T21:25:30.937Z,55.98
2019-03-09T21:28:00.261Z,55.48
2019-03-09T21:30:29.578Z,56.01
2019-03-09T21:32:59.175Z,55.00
2019-03-09T21:35:29.738Z,55.92
2019-03-09T21:37:59.061Z,55.52
2019-03-09T21:40:28.687Z,55.55
2019-03-09T21:42:58.354Z,55.88
2019-03-09T21:45:27.725Z,56.93
2019-03-09T21:47:57.342Z,56.65
2019-03-09T21:50:26.983Z,56.81
2019-03-09T21:52:56.348Z,56.99
2019-03-09T21:55:26.034Z,57.15
2019-03-09T21:57:55.637Z,57.75
2019-03-09T22:00:24.979Z,58.25
2019-03-09T22:02:54.357Z,58.58
2019-03-09T22:05:23.681Z,58.35
2019-03-09T22:07:53.035Z,58.33
2019-03-09T22:10:22.616Z,57.79
2019-03-09T22:12:51.927Z,58.05
2019-03-09T22:15:21.537Z,58.04
2019-03-09T22:17:51.125Z,57.54
2019-03-09T22:20:20.782Z,57.95
2019-03-09T22:22:50.382Z,57.68
2019-03-09T22:25:21.367Z,57.89
2019-03-09T22:27:50.649Z,57.72
2019-03-09T22:30:23.250Z,57.17
2019-03-09T22:32:52.585Z,57.01
2019-03-09T22:35:21.883Z,57.54
2019-03-09T22:37:51.228Z,57.83
2019-03-09T22:40:21.361Z,57.96
2019-03-09T22:42:51.024Z,58.28
2019-03-09T22:45:20.371Z,58.75
2019-03-09T22:47:49.969Z,58.80
2019-03-09T22:50:23.085Z,58.92
2019-03-09T22:52:52.638Z,59.57
2019-03-09T22:55:22.264Z,59.68
2019-03-09T22:57:51.566Z,59.91
2019-03-09T23:00:25.795Z,60.13
2019-03-09T23:02:55.112Z,60.36
2019-03-09T23:05:24.418Z,60.32
2019-03-09T23:07:53.751Z,59.84
2019-03-09T23:10:26.302Z,60.08
2019-03-09T23:12:55.663Z,60.15
2019-03-09T23:15:25.298Z,60.10
2019-03-09T23:17:54.871Z,60.18
2019-03-09T23:20:24.518Z,59.85
2019-03-09T23:22:54.129Z,59.87
2019-03-09T23:25:23.429Z,59.86
2019-03-09T23:27:52.833Z,59.66
2019-03-09T23:30:23.059Z,59.22
2019-03-09T23:32:52.399Z,59.01
2019-03-09T23:35:22.321Z,59.14
2019-03-09T23:37:51.616Z,58.72
2019-03-09T23:40:23.814Z,58.39
2019-03-09T23:42:53.421Z,58.50
2019-03-09T23:45:29.579Z,57.90
2019-03-09T23:47:59.158Z,57.69
2019-03-09T23:50:28.501Z,57.70
2019-03-09T23:52:58.102Z,57.60
2019-03-09T23:55:27.730Z,57.36
2019-03-09T23:57:57.350Z,57.26
